createdAt,value
2022-12-19T00:00:28.240Z,78.62
2022-12-19T00:02:56.443Z,78.87
2022-12-19T00:05:24.666Z,78.11
2022-12-19T00:07:53.579Z,77.90
2022-12-19T00:10:21.366Z,77.80
2022-12-19T00:12:50.372Z,77.79
2022-12-19T00:15:18.262Z,77.92
2022-12-19T00:17:45.902Z,78.07
2022-12-19T00:20:13.641Z,77.86
2022-12-19T00:22:45.377Z,77.38
2022-12-19T00:25:13.076Z,77.82
2022-12-19T00:27:42.156Z,77.49
2022-12-19T00:30:12.769Z,77.87
2022-12-19T00:32:40.468Z,77.51
2022-12-19T00:35:08.627Z,77.47
2022-12-19T00:37:36.505Z,77.07
2022-12-19T00:40:08.393Z,77.45
2022-12-19T00:42:36.165Z,77.04
2022-12-19T00:45:03.909Z,76.25
2022-12-19T00:47:32.838Z,76.62
2022-12-19T00:50:00.506Z,77.14
2022-12-19T00:52:28.116Z,76.96
2022-12-19T00:54:57.580Z,76.82
2022-12-19T00:57:25.228Z,76.37
2022-12-19T00:59:52.814Z,76.31
2022-12-19T01:02:20.562Z,75.07
2022-12-19T01:04:49.606Z,75.49
2022-12-19T01:07:17.238Z,75.36
2022-12-19T01:09:44.882Z,75.26
2022-12-19T01:12:30.925Z,74.65
2022-12-19T01:15:04.481Z,75.12
2022-12-19T01:17:36.526Z,75.06
2022-12-19T01:20:14.081Z,75.64
2022-12-19T01:22:41.634Z,75.49
2022-12-19T01:25:09.763Z,75.39
2022-12-19T01:27:37.524Z,76.12
2022-12-19T01:30:07.294Z,75.91
2022-12-19T01:32:35.937Z,75.99
2022-12-19T01:35:03.584Z,75.87
2022-12-19T01:37:33.114Z,76.68
2022-12-19T01:40:00.711Z,77.17
2022-12-19T01:42:36.175Z,76.95
2022-12-19T01:45:17.425Z,77.48
2022-12-19T01:47:48.678Z,77.81
2022-12-19T01:50:27.462Z,77.46
2022-12-19T01:52:58.208Z,78.10
2022-12-19T01:55:26.576Z,78.64
2022-12-19T01:57:55.262Z,78.91
2022-12-19T02:00:22.982Z,79.71
2022-12-19T02:02:57.166Z,79.68
2022-12-19T02:05:25.116Z,79.96
2022-12-19T02:07:53.257Z,80.01
2022-12-19T02:10:22.283Z,80.73
2022-12-19T02:12:50.457Z,80.85
2022-12-19T02:15:19.396Z,81.37
2022-12-19T02:18:08.079Z,81.27
2022-12-19T02:20:57.581Z,81.48
2022-12-19T02:23:47.973Z,81.32
2022-12-19T02:26:37.722Z,81.75
2022-12-19T02:29:24.147Z,81.72
2022-12-19T02:31:58.175Z,81.76
2022-12-19T02:34:32.492Z,82.20
2022-12-19T02:37:04.975Z,83.09
2022-12-19T02:39:38.722Z,82.74
2022-12-19T02:42:10.755Z,83.00
2022-12-19T02:44:43.989Z,83.33
2022-12-19T02:47:14.599Z,83.52
2022-12-19T02:49:42.480Z,84.09
2022-12-19T02:52:11.456Z,83.80
2022-12-19T02:54:44.860Z,82.94
2022-12-19T02:57:20.606Z,82.38
2022-12-19T02:59:58.076Z,82.29
2022-12-19T03:02:36.951Z,82.03
2022-12-19T03:05:14.417Z,82.76
2022-12-19T03:07:50.169Z,84.47
2022-12-19T03:10:24.708Z,84.45
2022-12-19T03:13:01.788Z,84.45
2022-12-19T03:15:30.204Z,83.36
2022-12-19T03:18:01.156Z,83.51
2022-12-19T03:20:40.727Z,83.51
2022-12-19T03:23:08.436Z,83.72
2022-12-19T03:25:36.816Z,83.40
2022-12-19T03:28:12.199Z,82.82
2022-12-19T03:30:42.090Z,83.03
2022-12-19T03:33:13.973Z,83.09
2022-12-19T03:35:44.316Z,83.38
2022-12-19T03:38:14.084Z,83.55
2022-12-19T03:40:44.983Z,83.64
2022-12-19T03:43:14.608Z,83.68
2022-12-19T03:45:49.095Z,83.32
2022-12-19T03:48:26.179Z,83.03
2022-12-19T03:51:04.293Z,83.67
2022-12-19T03:53:42.501Z,84.53
2022-12-19T03:56:16.410Z,84.40
2022-12-19T03:58:49.145Z,83.18
2022-12-19T04:01:17.472Z,82.81
2022-12-19T04:03:46.676Z,82.89
2022-12-19T04:06:15.929Z,82.86
2022-12-19T04:08:44.451Z,82.00
2022-12-19T04:11:16.512Z,81.51
2022-12-19T04:13:50.094Z,81.27
2022-12-19T04:16:21.379Z,80.84
2022-12-19T04:18:56.788Z,80.70
2022-12-19T04:21:28.817Z,81.82
2022-12-19T04:24:03.833Z,81.95
2022-12-19T04:26:33.833Z,82.57
2022-12-19T04:29:05.420Z,82.92
2022-12-19T04:31:33.284Z,81.93
2022-12-19T04:34:02.393Z,82.04
2022-12-19T04:36:30.506Z,80.87
2022-12-19T04:38:58.703Z,81.22
2022-12-19T04:41:26.576Z,81.79
2022-12-19T04:43:54.181Z,82.32
2022-12-19T04:46:21.805Z,81.95
2022-12-19T04:48:49.513Z,80.63
2022-12-19T04:51:18.458Z,80.23
2022-12-19T04:53:46.061Z,80.41
2022-12-19T04:56:13.894Z,80.74
2022-12-19T04:58:41.550Z,80.58
2022-12-19T05:01:10.079Z,80.35
2022-12-19T05:03:39.044Z,81.06
2022-12-19T05:06:08.614Z,81.25
2022-12-19T05:08:38.988Z,81.24
2022-12-19T05:11:08.059Z,80.46
2022-12-19T05:13:36.249Z,81.23
2022-12-19T05:16:05.969Z,80.75
2022-12-19T05:18:34.274Z,80.82
2022-12-19T05:21:02.204Z,80.43
2022-12-19T05:23:29.941Z,79.95
2022-12-19T05:26:00.297Z,81.21
2022-12-19T05:28:28.138Z,80.73
2022-12-19T05:31:03.545Z,80.10
2022-12-19T05:33:31.152Z,80.76
2022-12-19T05:35:58.897Z,81.39
2022-12-19T05:38:27.161Z,82.30
2022-12-19T05:40:54.977Z,81.87
2022-12-19T05:43:24.491Z,82.08
2022-12-19T05:45:52.139Z,82.50
2022-12-19T05:48:19.761Z,81.45
2022-12-19T05:50:51.252Z,81.96
2022-12-19T05:53:23.326Z,82.74
2022-12-19T05:55:53.742Z,82.00
2022-12-19T05:58:21.627Z,81.65
2022-12-19T06:00:50.579Z,81.79
2022-12-19T06:03:18.298Z,80.68
2022-12-19T06:05:46.376Z,81.73
2022-12-19T06:08:13.930Z,81.48
2022-12-19T06:10:41.505Z,81.43
2022-12-19T06:13:09.207Z,81.79
2022-12-19T06:15:36.776Z,80.56
2022-12-19T06:18:05.816Z,80.81
2022-12-19T06:20:33.423Z,80.30
2022-12-19T06:23:00.973Z,80.35
2022-12-19T06:25:28.567Z,80.42
2022-12-19T06:27:56.266Z,81.82
2022-12-19T06:30:23.854Z,82.24
2022-12-19T06:32:52.420Z,80.22
2022-12-19T06:35:21.505Z,80.25
2022-12-19T06:37:49.814Z,81.31
2022-12-19T06:40:37.855Z,81.86
2022-12-19T06:43:04.513Z,82.34
2022-12-19T06:45:32.384Z,82.43
2022-12-19T06:48:00.119Z,81.57
2022-12-19T06:50:29.060Z,81.01
2022-12-19T06:52:56.923Z,81.30
2022-12-19T06:55:24.875Z,79.34
2022-12-19T06:57:52.491Z,78.97
2022-12-19T07:00:21.735Z,80.06
2022-12-19T07:02:52.854Z,80.82
2022-12-19T07:05:20.877Z,81.66
2022-12-19T07:07:51.277Z,81.58
2022-12-19T07:10:19.124Z,81.67
2022-12-19T07:12:46.885Z,80.16
2022-12-19T07:15:14.771Z,81.38
2022-12-19T07:17:42.939Z,82.11
2022-12-19T07:20:20.193Z,81.63
2022-12-19T07:22:51.376Z,82.63
2022-12-19T07:25:19.078Z,82.18
2022-12-19T07:27:47.703Z,82.73
2022-12-19T07:30:15.397Z,82.32
2022-12-19T07:32:43.332Z,82.02
2022-12-19T07:35:11.142Z,80.64
2022-12-19T07:37:38.836Z,80.02
2022-12-19T07:40:08.995Z,80.01
2022-12-19T07:42:37.189Z,79.60
2022-12-19T07:45:06.498Z,79.92
2022-12-19T07:47:34.595Z,79.73
2022-12-19T07:50:02.579Z,79.54
2022-12-19T07:52:30.240Z,80.20
2022-12-19T07:54:57.939Z,79.71
2022-12-19T07:57:27.130Z,79.33
2022-12-19T07:59:54.969Z,79.19
2022-12-19T08:02:22.853Z,79.32
2022-12-19T08:04:52.093Z,79.73
2022-12-19T08:07:20.057Z,78.88
2022-12-19T08:09:48.183Z,80.35
2022-12-19T08:12:16.857Z,80.04
2022-12-19T08:14:45.833Z,79.36
2022-12-19T08:17:21.514Z,80.16
2022-12-19T08:19:49.467Z,79.31
2022-12-19T08:22:17.151Z,78.66
2022-12-19T08:24:44.898Z,77.56
2022-12-19T08:27:12.635Z,78.40
2022-12-19T08:29:40.340Z,78.43
2022-12-19T08:32:18.640Z,79.31
2022-12-19T08:34:48.316Z,78.85
2022-12-19T08:37:15.945Z,78.88
2022-12-19T08:39:43.487Z,77.74
2022-12-19T08:42:11.096Z,78.21
2022-12-19T08:44:38.620Z,77.04
2022-12-19T08:47:06.360Z,76.63
2022-12-19T08:49:35.697Z,75.81
2022-12-19T08:52:03.317Z,75.30
2022-12-19T08:54:30.973Z,77.16
2022-12-19T08:56:59.165Z,77.52
2022-12-19T08:59:31.762Z,79.68
2022-12-19T09:02:02.122Z,79.17
2022-12-19T09:05:58.507Z,79.44
2022-12-19T09:07:19.697Z,78.51
2022-12-19T09:09:50.310Z,78.03
2022-12-19T09:12:17.940Z,77.61
2022-12-19T09:14:45.569Z,78.25
2022-12-19T09:17:13.306Z,79.37
2022-12-19T09:19:43.016Z,78.14
2022-12-19T09:22:15.342Z,77.63
2022-12-19T09:24:44.447Z,77.00
2022-12-19T09:27:12.089Z,77.06
2022-12-19T09:29:40.490Z,78.41
2022-12-19T09:32:08.258Z,77.96
2022-12-19T09:34:38.310Z,78.94
2022-12-19T09:37:08.121Z,78.08
2022-12-19T09:39:36.735Z,79.08
2022-12-19T09:42:19.783Z,79.02
2022-12-19T09:45:01.988Z,78.96
2022-12-19T09:47:31.724Z,79.00
2022-12-19T09:50:03.389Z,77.92
2022-12-19T09:52:36.917Z,78.30
2022-12-19T09:55:16.753Z,78.08
2022-12-19T09:57:53.116Z,77.83
2022-12-19T10:00:23.206Z,78.48
2022-12-19T10:02:57.593Z,78.16
2022-12-19T10:06:01.813Z,78.75
2022-12-19T10:08:21.694Z,78.64
2022-12-19T10:12:38.877Z,78.74
2022-12-19T10:14:07.567Z,77.46
2022-12-19T10:17:01.767Z,77.82
2022-12-19T10:19:44.248Z,78.40
2022-12-19T10:22:24.795Z,78.50
2022-12-19T10:25:16.904Z,78.05
2022-12-19T10:27:57.782Z,76.76
2022-12-19T10:30:34.133Z,76.27
2022-12-19T10:33:19.862Z,76.94
2022-12-19T10:35:52.715Z,77.64
2022-12-19T10:38:28.017Z,79.21
2022-12-19T10:41:11.496Z,79.28
2022-12-19T10:43:48.134Z,81.18
2022-12-19T10:46:24.453Z,80.48
2022-12-19T10:48:52.564Z,81.40
2022-12-19T10:51:24.546Z,79.43
2022-12-19T10:53:57.022Z,79.81
2022-12-19T10:56:29.271Z,78.81
2022-12-19T10:59:01.342Z,78.98
2022-12-19T11:01:36.449Z,78.74
2022-12-19T11:04:27.052Z,79.67
2022-12-19T11:07:07.488Z,79.59
2022-12-19T11:09:38.606Z,79.27
2022-12-19T11:14:40.664Z,80.22
2022-12-19T11:19:15.737Z,80.65
2022-12-19T11:25:24.863Z,81.93
2022-12-19T11:29:33.807Z,80.21
2022-12-19T11:29:44.753Z,80.83
2022-12-19T11:30:34.368Z,80.68
2022-12-19T11:32:40.977Z,81.29
2022-12-19T11:35:19.938Z,80.89
2022-12-19T11:37:55.770Z,80.69
2022-12-19T11:40:33.660Z,81.22
2022-12-19T11:46:01.288Z,81.01
2022-12-19T11:48:38.301Z,81.21
2022-12-19T11:51:18.557Z,81.38
2022-12-19T11:53:53.973Z,81.15
2022-12-19T11:56:25.356Z,80.44
2022-12-19T11:58:58.925Z,79.84
2022-12-19T12:01:42.581Z,81.29
2022-12-19T12:04:37.083Z,82.34
2022-12-19T12:07:28.126Z,81.58
2022-12-19T12:14:01.903Z,80.97
2022-12-19T12:18:21.278Z,80.52
2022-12-19T12:27:50.004Z,80.82
2022-12-19T12:31:13.428Z,79.75
2022-12-19T12:31:15.791Z,79.99
2022-12-19T12:31:38.742Z,79.39
2022-12-19T12:31:49.080Z,79.62
2022-12-19T12:31:53.450Z,79.96
2022-12-19T12:35:17.433Z,81.03
2022-12-19T12:39:52.378Z,80.93
2022-12-19T12:42:37.981Z,81.89
2022-12-19T12:45:18.624Z,82.27
2022-12-19T12:47:49.027Z,83.31
2022-12-19T12:50:19.052Z,82.70
2022-12-19T12:52:49.199Z,83.09
2022-12-19T12:55:21.299Z,83.75
2022-12-19T12:57:50.284Z,82.96
2022-12-19T13:00:24.458Z,82.49
2022-12-19T13:02:57.529Z,82.64
2022-12-19T13:05:39.230Z,82.18
2022-12-19T13:08:36.504Z,81.76
2022-12-19T13:11:06.407Z,82.02
2022-12-19T13:13:57.970Z,81.21
2022-12-19T13:16:52.756Z,80.98
2022-12-19T13:19:27.801Z,81.52
2022-12-19T13:22:21.235Z,81.52
2022-12-19T13:24:51.267Z,81.21
2022-12-19T13:27:40.446Z,81.71
2022-12-19T13:30:20.625Z,81.42
2022-12-19T13:33:12.246Z,80.58
2022-12-19T13:36:52.623Z,80.62
2022-12-19T13:39:57.477Z,80.74
2022-12-19T13:41:49.648Z,80.18
2022-12-19T13:44:20.591Z,80.87
2022-12-19T13:46:50.543Z,81.22
2022-12-19T13:49:25.142Z,81.18
2022-12-19T13:51:57.378Z,81.17
2022-12-19T13:54:32.817Z,81.98
2022-12-19T13:57:09.001Z,82.03
2022-12-19T13:59:54.389Z,82.49
2022-12-19T14:02:34.890Z,81.59
2022-12-19T14:05:31.892Z,82.91
2022-12-19T14:08:15.651Z,82.92
2022-12-19T14:11:29.486Z,83.93
2022-12-19T14:14:03.019Z,83.65
2022-12-19T14:16:43.517Z,83.97
2022-12-19T14:19:21.589Z,83.75
2022-12-19T14:22:09.607Z,84.36
2022-12-19T14:24:37.201Z,83.27
2022-12-19T14:28:19.826Z,83.30
2022-12-19T14:30:27.973Z,83.73
2022-12-19T14:33:44.991Z,83.92
2022-12-19T14:36:26.277Z,83.71
2022-12-19T14:39:27.906Z,83.75
2022-12-19T14:42:04.422Z,83.11
2022-12-19T14:52:35.991Z,82.59
2022-12-19T14:54:01.162Z,82.56
2022-12-19T14:54:22.082Z,83.17
2022-12-19T14:54:32.371Z,82.73
2022-12-19T14:59:02.205Z,84.44
2022-12-19T15:01:33.620Z,84.31
2022-12-19T15:04:52.361Z,84.03
2022-12-19T15:07:08.388Z,84.52
2022-12-19T15:10:58.319Z,83.89
2022-12-19T15:14:55.374Z,84.43
2022-12-19T15:15:59.819Z,84.25
2022-12-19T15:18:29.705Z,84.99
2022-12-19T15:20:59.040Z,85.34
2022-12-19T15:23:27.177Z,85.45
2022-12-19T15:26:07.070Z,85.42
2022-12-19T15:28:41.102Z,85.82
2022-12-19T15:31:23.274Z,87.17
2022-12-19T15:34:23.758Z,86.28
2022-12-19T15:36:38.758Z,87.22
2022-12-19T15:39:06.597Z,86.77
2022-12-19T15:41:35.992Z,86.69
2022-12-19T15:44:09.658Z,86.72
2022-12-19T15:46:41.349Z,87.29
2022-12-19T15:49:16.571Z,87.50
2022-12-19T15:51:45.787Z,87.87
2022-12-19T15:57:22.659Z,87.53
2022-12-19T15:59:52.998Z,87.63
2022-12-19T16:02:24.675Z,87.49
2022-12-19T16:04:58.328Z,87.82
2022-12-19T16:07:30.383Z,88.41
2022-12-19T16:09:58.115Z,88.87
2022-12-19T16:12:33.823Z,88.37
2022-12-19T16:15:03.208Z,90.04
2022-12-19T16:17:34.000Z,89.59
2022-12-19T16:20:02.648Z,89.82
2022-12-19T16:22:30.559Z,89.43
2022-12-19T16:24:58.183Z,89.08
2022-12-19T16:27:29.539Z,89.54
2022-12-19T16:30:01.828Z,90.04
2022-12-19T16:32:29.471Z,89.09
2022-12-19T16:34:57.356Z,90.42
2022-12-19T16:37:31.810Z,89.71
2022-12-19T16:40:00.631Z,90.17
2022-12-19T16:42:30.701Z,90.58
2022-12-19T16:44:58.325Z,90.02
2022-12-19T16:47:26.236Z,90.39
2022-12-19T16:49:53.859Z,90.36
2022-12-19T16:52:21.442Z,89.57
2022-12-19T16:54:50.049Z,89.35
2022-12-19T16:57:20.685Z,90.13
2022-12-19T16:59:50.907Z,90.04
2022-12-19T17:02:44.163Z,89.49
2022-12-19T17:05:17.380Z,90.47
2022-12-19T17:07:45.014Z,89.49
2022-12-19T17:10:13.029Z,89.50
2022-12-19T17:12:41.469Z,90.67
2022-12-19T17:15:22.470Z,90.39
2022-12-19T17:17:50.845Z,91.02
2022-12-19T17:20:20.846Z,90.99
2022-12-19T17:22:49.113Z,90.93
2022-12-19T17:25:23.231Z,90.52
2022-12-19T17:27:52.043Z,89.99
2022-12-19T17:30:22.221Z,88.86
2022-12-19T17:32:53.767Z,89.03
2022-12-19T17:35:28.101Z,88.67
2022-12-19T17:37:57.534Z,88.68
2022-12-19T17:40:26.820Z,88.29
2022-12-19T17:42:56.559Z,87.74
2022-12-19T17:45:27.013Z,88.25
2022-12-19T17:48:02.022Z,88.38
2022-12-19T17:50:31.876Z,87.85
2022-12-19T17:52:59.505Z,88.83
2022-12-19T17:55:29.416Z,88.60
2022-12-19T17:57:57.976Z,88.48
2022-12-19T18:00:30.934Z,87.66
2022-12-19T18:03:02.350Z,87.58
2022-12-19T18:05:33.341Z,87.90
2022-12-19T18:08:01.124Z,88.32
2022-12-19T18:10:31.183Z,89.01
2022-12-19T18:12:59.472Z,90.56
2022-12-19T18:15:29.433Z,90.84
2022-12-19T18:17:58.464Z,90.89
2022-12-19T18:20:31.943Z,90.51
2022-12-19T18:23:01.197Z,91.58
2022-12-19T18:25:31.841Z,92.37
2022-12-19T18:27:59.615Z,92.56
2022-12-19T18:30:28.573Z,91.90
2022-12-19T18:32:59.034Z,91.37
2022-12-19T18:35:35.704Z,91.39
2022-12-19T18:38:06.534Z,91.51
2022-12-19T18:40:34.689Z,91.90
2022-12-19T18:43:02.515Z,91.00
2022-12-19T18:45:36.349Z,90.06
2022-12-19T18:48:07.951Z,90.65
2022-12-19T18:50:35.884Z,91.11
2022-12-19T18:53:03.535Z,90.96
2022-12-19T18:55:32.397Z,90.69
2022-12-19T18:58:00.299Z,91.99
2022-12-19T19:00:29.265Z,92.01
2022-12-19T19:03:01.008Z,92.17
2022-12-19T19:05:32.202Z,92.81
2022-12-19T19:08:06.747Z,92.23
2022-12-19T19:10:34.868Z,92.69
2022-12-19T19:13:08.236Z,92.11
2022-12-19T19:15:41.956Z,91.88
2022-12-19T19:18:10.877Z,91.66
2022-12-19T19:20:41.345Z,90.50
2022-12-19T19:23:12.089Z,90.20
2022-12-19T19:25:39.973Z,88.90
2022-12-19T19:28:08.196Z,88.60
2022-12-19T19:30:38.303Z,88.80
2022-12-19T19:33:10.257Z,88.32
2022-12-19T19:35:39.800Z,87.88
2022-12-19T19:38:08.964Z,87.96
2022-12-19T19:40:37.639Z,87.21
2022-12-19T19:43:06.899Z,87.27
2022-12-19T19:45:39.650Z,86.49
2022-12-19T19:48:11.233Z,86.73
2022-12-19T19:50:40.117Z,86.27
2022-12-19T19:53:07.715Z,86.34
2022-12-19T19:55:35.504Z,86.27
2022-12-19T19:58:03.428Z,87.74
2022-12-19T20:00:31.079Z,87.77
2022-12-19T20:03:02.022Z,88.29
2022-12-19T20:05:32.874Z,88.62
2022-12-19T20:08:02.414Z,88.88
2022-12-19T20:10:30.153Z,88.30
2022-12-19T20:12:57.817Z,87.19
2022-12-19T20:15:25.579Z,87.14
2022-12-19T20:17:53.568Z,86.88
2022-12-19T20:20:21.247Z,87.83
2022-12-19T20:22:49.920Z,87.78
2022-12-19T20:25:19.128Z,87.58
2022-12-19T20:27:46.748Z,87.52
2022-12-19T20:30:15.055Z,88.04
2022-12-19T20:32:42.689Z,87.87
2022-12-19T20:35:14.835Z,87.84
2022-12-19T20:37:43.014Z,88.06
2022-12-19T20:40:11.652Z,87.27
2022-12-19T20:42:40.733Z,87.45
2022-12-19T20:45:09.278Z,87.28
2022-12-19T20:47:36.939Z,86.53
2022-12-19T20:50:05.203Z,86.63
2022-12-19T20:52:32.846Z,87.07
2022-12-19T20:55:00.541Z,88.02
2022-12-19T20:57:31.982Z,88.25
2022-12-19T21:00:02.328Z,89.19
2022-12-19T21:02:46.235Z,87.59
2022-12-19T21:05:19.543Z,85.68
2022-12-19T21:07:47.409Z,85.99
2022-12-19T21:10:15.077Z,87.84
2022-12-19T21:12:47.568Z,86.57
2022-12-19T21:15:17.733Z,86.59
2022-12-19T21:17:46.613Z,86.21
2022-12-19T21:20:15.292Z,85.20
2022-12-19T21:22:42.884Z,85.37
2022-12-19T21:25:10.572Z,85.65
2022-12-19T21:27:38.168Z,85.05
2022-12-19T21:30:06.402Z,85.74
2022-12-19T21:32:35.903Z,86.66
2022-12-19T21:35:03.549Z,87.33
2022-12-19T21:37:31.298Z,86.50
2022-12-19T21:39:59.024Z,86.32
2022-12-19T21:42:26.621Z,86.09
2022-12-19T21:44:54.208Z,86.20
2022-12-19T21:47:22.145Z,86.67
2022-12-19T21:49:51.042Z,86.42
2022-12-19T21:52:18.641Z,86.52
2022-12-19T21:54:46.292Z,86.20
2022-12-19T21:57:13.910Z,85.73
2022-12-19T21:59:41.523Z,86.43
2022-12-19T22:02:11.101Z,87.25
2022-12-19T22:04:38.785Z,87.74
2022-12-19T22:07:07.958Z,88.34
2022-12-19T22:09:35.649Z,87.25
2022-12-19T22:12:03.301Z,86.75
2022-12-19T22:14:30.870Z,86.13
2022-12-19T22:17:00.117Z,86.29
2022-12-19T22:19:27.770Z,86.97
2022-12-19T22:21:55.395Z,87.74
2022-12-19T22:24:24.766Z,87.85
2022-12-19T22:26:52.450Z,87.55
2022-12-19T22:29:20.141Z,86.87
2022-12-19T22:31:49.672Z,86.14
2022-12-19T22:34:19.665Z,85.33
2022-12-19T22:36:48.683Z,85.98
2022-12-19T22:39:18.883Z,85.58
2022-12-19T22:41:48.344Z,85.96
2022-12-19T22:44:18.064Z,84.81
2022-12-19T22:46:46.322Z,85.34
2022-12-19T22:49:14.780Z,85.26
2022-12-19T22:51:42.510Z,85.59
2022-12-19T22:54:11.865Z,85.73
2022-12-19T22:56:40.418Z,86.23
2022-12-19T22:59:11.102Z,86.45
2022-12-19T23:01:40.744Z,86.86
2022-12-19T23:04:09.997Z,85.89
2022-12-19T23:06:38.232Z,86.08
2022-12-19T23:09:06.933Z,85.24
2022-12-19T23:11:36.769Z,85.28
2022-12-19T23:14:06.776Z,84.78
2022-12-19T23:16:36.353Z,85.13
2022-12-19T23:19:05.382Z,85.45
2022-12-19T23:21:33.225Z,86.10
2022-12-19T23:24:00.811Z,86.47
2022-12-19T23:26:30.214Z,85.46
2022-12-19T23:29:00.822Z,84.70
2022-12-19T23:31:29.325Z,84.54
2022-12-19T23:33:59.637Z,83.83
2022-12-19T23:37:00.990Z,83.60
2022-12-19T23:39:15.543Z,83.72
2022-12-19T23:41:43.336Z,83.90
2022-12-19T23:44:11.633Z,83.66
2022-12-19T23:46:39.964Z,84.45
2022-12-19T23:49:08.973Z,84.35
2022-12-19T23:51:36.630Z,85.02
2022-12-19T23:54:04.354Z,85.92
2022-12-19T23:56:33.176Z,86.76
2022-12-19T23:59:01.503Z,87.83
